createdAt,value
2022-09-03T00:03:09.272Z,100030.47
2022-09-03T00:10:05.638Z,100028.88
2022-09-03T00:16:57.275Z,100028.88
2022-09-03T00:23:45.975Z,100022.06
2022-09-03T00:30:35.651Z,100024.88
2022-09-03T00:37:21.408Z,100028.06
2022-09-03T00:44:33.220Z,100015.66
2022-09-03T00:51:30.372Z,100023.69
2022-09-03T00:58:48.557Z,100012.47
2022-09-03T01:06:03.927Z,100011.28
2022-09-03T01:13:00.324Z,100015.28
2022-09-03T01:20:11.640Z,100017.69
2022-09-03T01:27:18.462Z,100011.69
2022-09-03T01:34:23.356Z,100008.09
2022-09-03T01:41:35.096Z,100007.28
2022-09-03T01:48:40.486Z,99950.00
2022-09-03T01:55:36.586Z,99981.25
2022-09-03T02:02:25.364Z,100010.06
2022-09-03T02:09:11.378Z,100025.69
2022-09-03T02:16:03.920Z,99984.03
2022-09-03T02:22:50.714Z,99978.44
2022-09-03T02:29:37.168Z,100025.69
2022-09-03T02:36:32.448Z,100025.69
2022-09-03T02:43:25.951Z,100022.09
2022-09-03T03:04:02.943Z,100026.50
2022-09-03T03:10:49.370Z,100014.09
2022-09-03T03:17:34.839Z,100018.09
2022-09-03T03:24:22.900Z,99952.00
2022-09-03T03:31:12.219Z,100000.88
2022-09-03T03:38:00.041Z,100012.91
2022-09-03T03:44:49.191Z,100017.31
2022-09-03T03:51:35.031Z,100023.28
2022-09-03T03:58:20.480Z,100028.91
2022-09-03T04:05:09.989Z,100020.09
2022-09-03T04:11:57.942Z,100024.44
2022-09-03T04:18:44.050Z,100014.84
2022-09-03T04:25:32.404Z,100000.03
2022-09-03T04:32:30.464Z,100006.03
2022-09-03T04:39:15.934Z,100000.41
2022-09-03T04:46:06.492Z,100002.41
2022-09-03T04:52:52.504Z,100020.03
2022-09-03T04:59:37.874Z,100011.66
2022-09-03T05:06:26.311Z,100033.59
2022-09-03T05:13:11.864Z,100034.44
2022-09-03T05:19:57.421Z,100038.84
2022-09-03T05:26:45.554Z,100032.81
2022-09-03T05:33:31.780Z,100045.22
2022-09-03T05:40:17.352Z,100061.25
2022-09-03T05:47:05.396Z,100073.66
2022-09-03T05:53:53.535Z,100080.84
2022-09-03T06:00:39.476Z,100100.06
2022-09-03T06:07:29.498Z,100098.44
2022-09-03T06:14:17.622Z,100105.59
2022-09-03T06:21:06.860Z,100056.22
2022-09-03T06:27:54.971Z,100112.28
2022-09-03T06:34:40.401Z,100120.63
2022-09-03T06:41:29.358Z,100124.53
2022-09-03T06:48:18.344Z,100136.91
2022-09-03T06:55:03.820Z,100141.31
2022-09-03T07:01:49.461Z,100122.41
2022-09-03T07:08:38.657Z,100093.94
2022-09-03T07:15:24.341Z,100142.94
2022-09-03T07:22:10.449Z,100138.94
2022-09-03T07:28:58.563Z,100138.97
2022-09-03T07:35:44.044Z,100077.44
2022-09-03T07:42:31.128Z,100154.81
2022-09-03T07:49:20.271Z,100098.47
2022-09-03T07:56:08.449Z,100155.88
2022-09-03T08:02:56.658Z,100164.66
2022-09-03T08:09:44.756Z,100164.25
2022-09-03T08:16:31.554Z,100172.25
2022-09-03T08:23:17.401Z,100133.81
2022-09-03T08:30:07.904Z,100145.47
2022-09-03T08:36:54.541Z,100152.25
2022-09-03T08:44:13.693Z,100126.44
2022-09-03T08:51:06.202Z,100163.88
2022-09-03T08:58:00.327Z,100173.50
2022-09-03T09:05:02.384Z,100178.41
2022-09-03T09:12:07.731Z,100193.25
2022-09-03T09:19:11.559Z,100111.69
2022-09-03T09:26:00.334Z,100213.22
2022-09-03T09:32:49.873Z,100199.59
2022-09-03T09:39:35.712Z,100137.06
2022-09-03T09:46:27.484Z,100200.50
2022-09-03T09:53:21.737Z,100206.09
2022-09-03T10:00:12.944Z,100215.84
2022-09-03T10:07:00.018Z,100204.81
2022-09-03T10:13:51.097Z,100192.06
2022-09-03T10:20:44.492Z,100193.66
2022-09-03T10:27:32.013Z,100197.22
2022-09-03T10:34:37.240Z,100150.34
2022-09-03T10:41:44.045Z,100197.81
2022-09-03T10:49:04.532Z,100207.09
2022-09-03T10:56:04.985Z,100185.81
2022-09-03T11:03:24.201Z,100179.03
2022-09-03T11:10:21.197Z,100181.06
2022-09-03T11:17:18.693Z,100178.69
2022-09-03T11:24:14.837Z,100178.31
2022-09-03T11:31:21.477Z,100163.50
2022-09-03T11:38:27.377Z,100156.69
2022-09-03T11:45:25.998Z,100150.69
2022-09-03T11:52:12.323Z,100135.03
2022-09-03T11:59:21.302Z,100147.84
2022-09-03T12:06:31.454Z,100144.22
2022-09-03T12:13:40.488Z,100148.22
2022-09-03T12:20:32.323Z,100139.41
2022-09-03T12:27:25.124Z,100125.34
2022-09-03T12:34:15.443Z,100126.47
2022-09-03T12:41:23.525Z,100120.78
2022-09-03T12:48:18.285Z,100113.47
2022-09-03T12:55:07.889Z,100107.00
2022-09-03T13:02:02.526Z,100118.59
2022-09-03T13:08:52.152Z,100126.13
2022-09-03T13:15:37.675Z,100133.34
2022-09-03T13:22:36.095Z,100128.47
2022-09-03T13:29:49.426Z,100134.75
2022-09-03T13:36:48.182Z,100135.16
2022-09-03T13:43:42.621Z,100142.75
2022-09-03T13:50:28.872Z,100129.06
2022-09-03T13:57:33.821Z,100120.53
2022-09-03T14:04:31.098Z,100121.41
2022-09-03T14:11:29.326Z,100089.31
2022-09-03T14:18:26.750Z,100110.41
2022-09-03T14:25:22.816Z,100047.22
2022-09-03T14:32:41.216Z,100105.78
2022-09-03T14:39:37.127Z,100106.78
2022-09-03T14:46:42.500Z,100105.97
2022-09-03T14:53:55.776Z,100110.06
2022-09-03T15:00:56.693Z,100100.09
2022-09-03T15:07:53.721Z,100039.69
2022-09-03T15:14:49.389Z,100101.41
2022-09-03T15:21:54.605Z,100062.47
2022-09-03T15:29:06.781Z,100107.44
2022-09-03T15:36:15.127Z,100109.78
2022-09-03T15:43:09.788Z,100104.44
2022-09-03T15:50:06.332Z,100107.53
2022-09-03T15:56:57.500Z,100123.84
2022-09-03T16:03:56.136Z,100117.56
2022-09-03T16:11:06.425Z,100114.72
2022-09-03T16:18:00.563Z,100099.69
2022-09-03T16:24:54.137Z,100106.84
2022-09-03T16:32:00.603Z,100116.38
2022-09-03T16:38:55.409Z,100107.59
2022-09-03T16:45:55.216Z,100135.97
2022-09-03T16:53:02.977Z,100148.84
2022-09-03T17:00:12.222Z,100159.97
2022-09-03T17:07:20.220Z,100171.94
2022-09-03T17:14:28.973Z,100154.88
2022-09-03T17:21:29.897Z,100158.16
2022-09-03T17:28:31.546Z,100163.06
2022-09-03T17:35:25.017Z,100154.66
2022-09-03T17:42:20.495Z,100158.22
2022-09-03T17:49:10.321Z,100170.53
2022-09-03T17:56:04.125Z,100191.56
2022-09-03T18:03:01.093Z,100166.41
2022-09-03T18:09:58.965Z,100216.94
2022-09-03T18:16:56.106Z,100229.41
2022-09-03T18:24:09.957Z,100173.75
2022-09-03T18:31:08.010Z,100248.31
2022-09-03T18:38:08.968Z,100248.34
2022-09-03T18:45:21.836Z,100254.38
2022-09-03T18:52:30.721Z,100256.81
2022-09-03T18:59:58.537Z,100242.81
2022-09-03T19:07:10.241Z,100233.19
2022-09-03T19:14:08.363Z,100265.25
2022-09-03T19:21:21.595Z,100263.28
2022-09-03T19:28:38.905Z,100260.84
2022-09-03T19:35:45.052Z,100266.06
2022-09-03T19:43:02.600Z,100270.47
2022-09-03T19:50:14.068Z,100274.88
2022-09-03T19:57:13.917Z,100251.28
2022-09-03T20:04:19.757Z,100288.16
2022-09-03T20:11:08.257Z,100288.16
2022-09-03T20:18:04.885Z,100303.44
2022-09-03T20:25:10.613Z,100301.84
2022-09-03T20:32:04.865Z,100308.66
2022-09-03T20:39:28.314Z,100261.31
2022-09-03T20:46:51.193Z,100303.03
2022-09-03T20:54:02.200Z,100313.03
2022-09-03T21:00:54.672Z,100325.47
2022-09-03T21:07:59.224Z,100323.44
2022-09-03T21:14:52.053Z,100329.44
2022-09-03T21:21:50.927Z,100325.84
2022-09-03T21:28:44.413Z,100276.78
2022-09-03T21:35:34.088Z,100343.41
2022-09-03T21:42:27.257Z,100341.03
2022-09-03T21:49:20.630Z,100357.84
2022-09-03T21:56:41.384Z,100353.00
2022-09-03T22:03:26.966Z,100367.41
2022-09-03T22:10:24.180Z,100366.59
2022-09-03T22:17:19.039Z,100366.94
2022-09-03T22:24:22.986Z,100366.09
2022-09-03T22:31:20.786Z,100360.09
2022-09-03T22:38:35.929Z,100370.06
2022-09-03T22:45:51.011Z,100362.81
2022-09-03T22:52:47.329Z,100360.78
2022-09-03T22:59:39.977Z,100367.16
2022-09-03T23:06:32.625Z,100366.25
2022-09-03T23:13:25.372Z,100374.66
2022-09-03T23:20:18.025Z,100377.47
2022-09-03T23:27:10.077Z,100384.63
2022-09-03T23:33:58.446Z,100384.16
2022-09-03T23:40:51.782Z,100327.81
2022-09-03T23:47:45.849Z,100397.28
2022-09-03T23:54:43.310Z,100396.38
